20°C Temp
14°C Dewpoint
69% Humidity
Temperature
0 KM/H
MPH
KTS
Calm
Due North

Wind Speed
Clear
Conditions
Pressure 1010.92 (hPa) - 29.85 (in)
Visibility 6.2 (mi) - 10.0 (km)

Current Conditions
LGAV
Location 12(km)
Metar :LGAV 120120Z 00000KT CAVOK 20/14 Q1011 NOSIG
Sun 12th July 03:20 am

Airport
  Metar Aviation API Data Provided by https://www.checkwx.com/ PHP scripts by weather34.com ©2020